createdAt,value
2019-02-07T00:01:08.898Z,11.40
2019-02-07T00:03:38.256Z,11.40
2019-02-07T00:06:07.630Z,11.40
2019-02-07T00:08:37.089Z,11.40
2019-02-07T00:11:06.479Z,11.40
2019-02-07T00:13:35.855Z,11.30
2019-02-07T00:16:05.267Z,11.30
2019-02-07T00:18:34.618Z,11.30
2019-02-07T00:21:04.001Z,11.20
2019-02-07T00:23:33.428Z,11.20
2019-02-07T00:26:02.788Z,11.20
2019-02-07T00:28:32.176Z,11.20
2019-02-07T00:31:01.705Z,11.20
2019-02-07T00:33:31.085Z,11.20
2019-02-07T00:36:00.438Z,11.20
2019-02-07T00:38:29.942Z,11.20
2019-02-07T00:40:59.302Z,11.20
2019-02-07T00:43:28.676Z,11.20
2019-02-07T00:45:58.084Z,11.20
2019-02-07T00:48:27.567Z,11.20
2019-02-07T00:50:56.944Z,11.20
2019-02-07T00:53:26.334Z,11.10
2019-02-07T00:55:55.688Z,11.10
2019-02-07T00:58:25.061Z,11.10
2019-02-07T01:00:54.474Z,11.10
2019-02-07T01:03:24.032Z,11.10
2019-02-07T01:05:53.464Z,11.20
2019-02-07T01:08:22.862Z,11.10
2019-02-07T01:10:52.649Z,11.10
2019-02-07T01:13:21.986Z,11.00
2019-02-07T01:15:51.392Z,11.10
2019-02-07T01:18:21.219Z,11.10
2019-02-07T01:20:50.598Z,11.00
2019-02-07T01:23:20.015Z,11.00
2019-02-07T01:25:49.368Z,10.90
2019-02-07T01:28:18.763Z,10.80
2019-02-07T01:30:48.191Z,10.70
2019-02-07T01:33:17.861Z,10.60
2019-02-07T01:35:47.222Z,10.60
2019-02-07T01:38:17.808Z,10.60
2019-02-07T01:40:47.586Z,10.60
2019-02-07T01:43:16.944Z,10.50
2019-02-07T01:45:46.447Z,10.50
2019-02-07T01:48:16.112Z,10.60
2019-02-07T01:50:45.473Z,10.60
2019-02-07T01:53:14.895Z,10.50
2019-02-07T01:55:44.258Z,10.60
2019-02-07T01:58:13.602Z,10.60
2019-02-07T02:00:43.044Z,10.60
2019-02-07T02:03:12.939Z,10.60
2019-02-07T02:05:42.397Z,10.70
2019-02-07T02:08:11.784Z,10.70
2019-02-07T02:10:41.143Z,10.60
2019-02-07T02:13:10.526Z,10.60
2019-02-07T02:15:39.982Z,10.50
2019-02-07T02:18:09.734Z,10.50
2019-02-07T02:20:39.100Z,10.40
2019-02-07T02:23:08.495Z,10.40
2019-02-07T02:25:37.845Z,10.40
2019-02-07T02:28:07.220Z,10.40
2019-02-07T02:30:36.696Z,10.40
2019-02-07T02:33:06.376Z,10.40
2019-02-07T02:35:35.734Z,10.40
2019-02-07T02:38:05.134Z,10.40
2019-02-07T02:40:34.564Z,10.50
2019-02-07T02:43:03.940Z,10.50
2019-02-07T02:45:37.517Z,10.50
2019-02-07T02:48:04.332Z,10.50
2019-02-07T02:50:33.693Z,10.50
2019-02-07T02:53:03.092Z,10.50
2019-02-07T02:55:36.825Z,10.50
2019-02-07T02:58:06.306Z,10.50
2019-02-07T03:00:37.590Z,10.50
2019-02-07T03:03:17.632Z,10.50
2019-02-07T03:05:54.821Z,10.50
2019-02-07T03:08:31.787Z,10.50
2019-02-07T03:11:03.533Z,10.40
2019-02-07T03:13:37.356Z,10.30
2019-02-07T03:16:17.251Z,10.30
2019-02-07T03:18:49.304Z,10.20
2019-02-07T03:21:38.912Z,10.20
2019-02-07T03:24:16.087Z,10.20
2019-02-07T03:26:47.092Z,10.20
2019-02-07T03:29:18.086Z,10.20
2019-02-07T03:32:05.639Z,10.20
2019-02-07T03:34:39.600Z,10.20
2019-02-07T03:37:13.384Z,10.20
2019-02-07T03:39:44.685Z,10.20
2019-02-07T03:42:30.939Z,10.10
2019-02-07T03:45:14.190Z,10.10
2019-02-07T03:47:48.451Z,10.20
2019-02-07T03:50:22.787Z,10.20
2019-02-07T03:53:10.332Z,10.10
2019-02-07T03:55:41.320Z,10.10
2019-02-07T03:58:18.498Z,10.10
2019-02-07T04:01:04.734Z,10.00
2019-02-07T04:03:44.776Z,9.90
2019-02-07T04:06:21.612Z,9.80
2019-02-07T04:09:08.727Z,9.80
2019-02-07T04:11:43.081Z,9.70
2019-02-07T04:14:14.145Z,9.80
2019-02-07T04:16:45.158Z,9.80
2019-02-07T04:19:28.066Z,9.80
2019-02-07T04:21:59.054Z,9.90
2019-02-07T04:24:30.039Z,9.80
2019-02-07T04:27:01.068Z,9.80
2019-02-07T04:29:35.009Z,9.80
2019-02-07T04:32:11.812Z,9.80
2019-02-07T04:34:43.233Z,9.80
2019-02-07T04:37:26.284Z,9.70
2019-02-07T04:40:13.527Z,9.60
2019-02-07T04:42:53.900Z,9.50
2019-02-07T04:45:24.897Z,9.40
2019-02-07T04:48:05.101Z,9.40
2019-02-07T04:50:42.949Z,9.30
2019-02-07T04:53:16.691Z,9.40
2019-02-07T04:55:50.545Z,9.40
2019-02-07T04:58:24.373Z,9.40
2019-02-07T05:01:08.411Z,9.40
2019-02-07T05:03:51.629Z,9.40
2019-02-07T05:06:31.589Z,9.40
2019-02-07T05:09:20.711Z,9.40
2019-02-07T05:11:54.904Z,9.40
2019-02-07T05:14:28.962Z,9.30
2019-02-07T05:17:02.883Z,9.30
2019-02-07T05:19:34.629Z,9.40
2019-02-07T05:22:17.506Z,9.40
2019-02-07T05:25:00.658Z,9.40
2019-02-07T05:27:48.068Z,9.40
2019-02-07T05:30:24.674Z,9.40
2019-02-07T05:32:55.681Z,9.30
2019-02-07T05:35:42.902Z,9.30
2019-02-07T05:38:26.012Z,9.40
2019-02-07T05:41:13.496Z,9.30
2019-02-07T05:43:48.124Z,9.30
2019-02-07T05:46:35.576Z,9.40
2019-02-07T05:49:23.047Z,9.30
2019-02-07T05:52:11.147Z,9.30
2019-02-07T05:54:58.427Z,9.40
2019-02-07T05:57:46.138Z,9.40
2019-02-07T06:00:17.424Z,9.40
2019-02-07T06:02:48.445Z,9.40
2019-02-07T06:05:19.462Z,9.30
2019-02-07T06:08:06.226Z,9.30
2019-02-07T06:10:39.940Z,9.30
2019-02-07T06:13:25.954Z,9.30
2019-02-07T06:16:02.784Z,9.30
2019-02-07T06:18:39.709Z,9.30
2019-02-07T06:21:27.012Z,8.40
2019-02-07T06:24:07.316Z,7.10
2019-02-07T06:26:38.343Z,5.80
2019-02-07T06:29:09.367Z,5.30
2019-02-07T06:31:40.428Z,5.00
2019-02-07T06:34:11.720Z,4.90
2019-02-07T06:36:42.740Z,5.00
2019-02-07T06:39:30.277Z,4.70
2019-02-07T06:42:01.274Z,4.40
2019-02-07T06:44:32.713Z,4.30
2019-02-07T06:47:13.825Z,4.40
2019-02-07T06:49:47.875Z,4.40
2019-02-07T06:52:37.986Z,4.20
2019-02-07T06:55:26.571Z,4.20
2019-02-07T06:58:03.377Z,4.20
2019-02-07T07:00:43.673Z,4.40
2019-02-07T07:03:14.695Z,4.60
2019-02-07T07:05:51.911Z,4.70
2019-02-07T07:08:40.361Z,4.60
2019-02-07T07:11:17.239Z,4.60
2019-02-07T07:13:48.384Z,4.80
2019-02-07T07:16:38.062Z,4.70
2019-02-07T07:19:21.185Z,4.60
2019-02-07T07:21:58.367Z,5.00
2019-02-07T07:24:29.411Z,6.00
2019-02-07T07:27:09.769Z,7.00
2019-02-07T07:29:57.504Z,8.30
2019-02-07T07:32:34.894Z,10.40
2019-02-07T07:35:23.242Z,12.20
2019-02-07T07:38:00.631Z,12.90
2019-02-07T07:40:31.637Z,13.70
2019-02-07T07:43:02.732Z,14.70
2019-02-07T07:45:45.605Z,15.40
2019-02-07T07:48:28.626Z,16.90
2019-02-07T07:51:00.166Z,17.40
2019-02-07T07:53:31.171Z,18.40
2019-02-07T07:56:08.207Z,19.00
2019-02-07T07:58:39.219Z,19.10
2019-02-07T08:01:16.043Z,19.20
2019-02-07T08:04:03.306Z,19.70
2019-02-07T08:06:37.488Z,20.60
2019-02-07T08:09:18.150Z,20.90
2019-02-07T08:11:49.278Z,20.40
2019-02-07T08:14:20.537Z,21.30
2019-02-07T08:16:54.656Z,21.10
2019-02-07T08:19:26.808Z,22.20
2019-02-07T08:22:05.380Z,22.20
2019-02-07T08:24:39.242Z,22.90
2019-02-07T08:27:16.839Z,23.30
2019-02-07T08:29:54.125Z,23.50
2019-02-07T08:32:41.653Z,23.00
2019-02-07T08:35:30.511Z,23.90
2019-02-07T08:38:07.761Z,25.10
2019-02-07T08:40:44.679Z,24.90
2019-02-07T08:43:15.855Z,25.60
2019-02-07T08:45:46.890Z,25.20
2019-02-07T08:48:20.772Z,24.50
2019-02-07T08:51:01.334Z,24.50
2019-02-07T08:53:44.562Z,25.60
2019-02-07T08:56:15.704Z,26.70
2019-02-07T08:58:59.034Z,28.30
2019-02-07T09:01:32.739Z,28.00
2019-02-07T09:04:03.881Z,27.50
2019-02-07T09:06:34.876Z,27.70
2019-02-07T09:09:09.241Z,28.40
2019-02-07T09:11:43.308Z,28.70
2019-02-07T09:14:29.650Z,28.20
2019-02-07T09:17:14.527Z,28.20
2019-02-07T09:20:02.354Z,28.80
2019-02-07T09:22:33.498Z,28.90
2019-02-07T09:25:11.092Z,28.20
2019-02-07T09:27:47.766Z,29.10
2019-02-07T09:30:37.339Z,29.30
2019-02-07T09:33:11.759Z,29.80
2019-02-07T09:35:45.672Z,29.70
2019-02-07T09:38:33.507Z,30.90
2019-02-07T09:41:14.067Z,31.50
2019-02-07T09:43:45.109Z,30.30
2019-02-07T09:46:16.766Z,29.60
2019-02-07T09:48:47.769Z,28.90
2019-02-07T09:51:28.065Z,29.20
2019-02-07T09:54:02.063Z,29.50
2019-02-07T09:56:34.346Z,29.50
2019-02-07T09:59:20.543Z,29.00
2019-02-07T10:01:57.599Z,28.40
2019-02-07T10:04:28.663Z,28.40
2019-02-07T10:07:08.820Z,29.30
2019-02-07T10:09:39.860Z,29.30
2019-02-07T10:12:20.419Z,30.70
2019-02-07T10:15:09.501Z,31.80
2019-02-07T10:17:43.703Z,33.90
2019-02-07T10:20:29.904Z,34.20
2019-02-07T10:23:04.023Z,33.50
2019-02-07T10:25:41.186Z,33.30
2019-02-07T10:28:18.561Z,33.80
2019-02-07T10:30:50.755Z,31.30
2019-02-07T10:33:21.894Z,29.10
2019-02-07T10:36:05.040Z,29.80
2019-02-07T10:38:47.742Z,30.50
2019-02-07T10:41:18.782Z,31.20
2019-02-07T10:44:06.652Z,31.20
2019-02-07T10:46:38.032Z,30.40
2019-02-07T10:49:20.883Z,29.30
2019-02-07T10:51:52.031Z,29.30
2019-02-07T10:54:29.008Z,29.20
2019-02-07T10:57:12.132Z,29.60
2019-02-07T10:59:59.559Z,30.00
2019-02-07T11:02:30.599Z,28.60
2019-02-07T11:05:04.711Z,28.00
2019-02-07T11:07:41.896Z,27.00
2019-02-07T11:10:22.043Z,26.70
2019-02-07T11:13:05.058Z,26.30
2019-02-07T11:15:38.981Z,27.10
2019-02-07T11:18:10.126Z,27.40
2019-02-07T11:20:57.760Z,28.10
2019-02-07T11:23:32.073Z,26.70
2019-02-07T11:26:19.908Z,27.00
2019-02-07T11:28:51.063Z,29.10
2019-02-07T11:31:30.887Z,30.60
2019-02-07T11:34:02.153Z,28.80
2019-02-07T11:36:53.424Z,27.30
2019-02-07T11:39:15.081Z,28.10
2019-02-07T11:41:49.299Z,28.00
2019-02-07T11:44:20.442Z,27.60
2019-02-07T11:47:07.867Z,27.10
2019-02-07T11:49:39.488Z,26.10
2019-02-07T11:52:16.096Z,24.10
2019-02-07T11:54:53.175Z,22.70
2019-02-07T11:57:33.025Z,21.60
2019-02-07T12:00:04.175Z,20.60
2019-02-07T12:02:38.387Z,20.30
2019-02-07T12:05:26.424Z,20.10
2019-02-07T12:07:58.078Z,19.50
2019-02-07T12:10:44.378Z,19.10
2019-02-07T12:13:18.387Z,18.70
2019-02-07T12:15:49.530Z,18.30
2019-02-07T12:18:21.646Z,18.10
2019-02-07T12:20:58.473Z,17.80
2019-02-07T12:23:47.182Z,17.70
2019-02-07T12:26:18.682Z,17.90
2019-02-07T12:29:04.880Z,17.70
2019-02-07T12:31:36.022Z,17.60
2019-02-07T12:34:13.110Z,17.30
2019-02-07T12:36:59.404Z,17.10
2019-02-07T12:39:30.548Z,16.70
2019-02-07T12:42:02.511Z,16.70
2019-02-07T12:44:39.390Z,16.80
2019-02-07T12:47:27.327Z,16.80
2019-02-07T12:50:07.070Z,16.70
2019-02-07T12:52:50.401Z,16.80
2019-02-07T12:55:38.053Z,16.70
2019-02-07T12:58:11.835Z,16.60
2019-02-07T13:00:46.461Z,16.60
2019-02-07T13:03:23.244Z,16.60
2019-02-07T13:05:54.379Z,16.60
2019-02-07T13:08:28.595Z,16.60
2019-02-07T13:10:59.760Z,16.70
2019-02-07T13:13:33.546Z,16.90
2019-02-07T13:16:20.084Z,16.90
2019-02-07T13:18:57.233Z,16.70
2019-02-07T13:21:34.035Z,16.40
2019-02-07T13:24:05.192Z,16.30
2019-02-07T13:26:43.786Z,16.00
2019-02-07T13:29:23.926Z,16.00
2019-02-07T13:32:03.929Z,16.00
2019-02-07T13:34:47.013Z,16.10
2019-02-07T13:37:36.407Z,16.10
2019-02-07T13:40:24.823Z,16.00
2019-02-07T13:43:01.905Z,15.90
2019-02-07T13:45:42.264Z,15.80
2019-02-07T13:48:28.507Z,16.00
2019-02-07T13:50:59.681Z,16.30
2019-02-07T13:53:42.938Z,16.40
2019-02-07T13:56:31.897Z,16.20
2019-02-07T13:59:03.035Z,16.00
2019-02-07T14:01:37.050Z,15.80
2019-02-07T14:04:11.162Z,15.90
2019-02-07T14:06:45.482Z,15.70
2019-02-07T14:09:16.528Z,15.80
2019-02-07T14:11:59.850Z,16.00
2019-02-07T14:14:40.128Z,15.70
2019-02-07T14:17:17.191Z,15.60
2019-02-07T14:20:03.825Z,15.50
2019-02-07T14:22:34.329Z,15.20
2019-02-07T14:25:16.120Z,15.20
2019-02-07T14:27:47.365Z,15.20
2019-02-07T14:30:24.247Z,15.30
2019-02-07T14:33:10.748Z,15.20
2019-02-07T14:35:50.702Z,15.20
2019-02-07T14:41:29.234Z,15.00
2019-02-07T14:44:03.041Z,15.00
2019-02-07T14:46:39.817Z,14.90
2019-02-07T14:49:09.219Z,15.00
2019-02-07T14:51:38.625Z,14.80
2019-02-07T14:54:08.230Z,14.80
2019-02-07T14:56:37.736Z,14.80
2019-02-07T14:59:07.137Z,14.90
2019-02-07T15:01:36.641Z,14.90
2019-02-07T15:04:06.251Z,14.60
2019-02-07T15:06:35.755Z,14.70
2019-02-07T15:09:08.538Z,14.50
2019-02-07T15:11:37.939Z,14.30
2019-02-07T15:14:07.549Z,14.30
2019-02-07T15:16:37.054Z,14.30
2019-02-07T15:19:06.456Z,14.30
2019-02-07T15:21:35.858Z,14.40
2019-02-07T15:24:08.305Z,14.50
2019-02-07T15:26:36.709Z,14.20
2019-02-07T15:29:06.321Z,14.40
2019-02-07T15:31:36.030Z,14.40
2019-02-07T15:34:05.536Z,14.40
2019-02-07T15:36:35.039Z,14.40
2019-02-07T15:39:07.719Z,14.10
2019-02-07T15:41:37.333Z,14.00
2019-02-07T15:44:06.708Z,13.90
2019-02-07T15:46:36.134Z,13.90
2019-02-07T15:49:05.638Z,13.90
2019-02-07T15:51:35.143Z,13.90
2019-02-07T15:54:05.364Z,13.90
2019-02-07T15:56:34.730Z,13.90
2019-02-07T15:59:05.807Z,13.90
2019-02-07T16:01:39.612Z,13.90
2019-02-07T16:04:13.522Z,13.60
2019-02-07T16:06:44.256Z,13.70
2019-02-07T16:09:14.273Z,13.70
2019-02-07T16:11:44.087Z,13.70
2019-02-07T16:14:13.590Z,13.40
2019-02-07T16:16:42.993Z,13.30
2019-02-07T16:19:12.502Z,13.10
2019-02-07T16:21:42.005Z,12.90
2019-02-07T16:24:11.510Z,12.70
2019-02-07T16:26:41.014Z,12.60
2019-02-07T16:29:10.637Z,12.60
2019-02-07T16:31:40.026Z,12.40
2019-02-07T16:34:09.427Z,12.60
2019-02-07T16:36:39.037Z,12.60
2019-02-07T16:39:08.643Z,12.50
2019-02-07T16:41:38.148Z,12.50
2019-02-07T16:44:07.756Z,12.70
2019-02-07T16:46:37.465Z,12.90
2019-02-07T16:49:07.074Z,12.70
2019-02-07T16:51:37.091Z,12.70
2019-02-07T16:54:06.449Z,12.50
2019-02-07T16:56:36.000Z,12.30
2019-02-07T16:59:05.422Z,12.00
2019-02-07T17:01:35.010Z,12.00
2019-02-07T17:04:06.151Z,12.10
2019-02-07T17:06:35.558Z,12.00
2019-02-07T17:09:08.989Z,12.10
2019-02-07T17:11:38.459Z,11.90
2019-02-07T17:14:07.962Z,11.80
2019-02-07T17:16:37.467Z,11.90
2019-02-07T17:19:06.869Z,12.00
2019-02-07T17:21:36.272Z,11.70
2019-02-07T17:24:05.777Z,11.60
2019-02-07T17:26:35.282Z,11.60
2019-02-07T17:29:04.687Z,11.40
2019-02-07T17:31:34.294Z,11.40
2019-02-07T17:34:03.699Z,11.40
2019-02-07T17:36:33.115Z,11.30
2019-02-07T17:39:02.611Z,11.10
2019-02-07T17:41:33.644Z,11.10
2019-02-07T17:44:03.252Z,11.00
2019-02-07T17:46:33.781Z,11.10
2019-02-07T17:49:03.184Z,11.20
2019-02-07T17:51:34.125Z,11.30
2019-02-07T17:54:03.531Z,11.30
2019-02-07T17:56:32.929Z,11.20
2019-02-07T17:59:02.433Z,11.20
2019-02-07T18:01:31.939Z,11.20
2019-02-07T18:04:01.342Z,11.40
2019-02-07T18:06:31.975Z,11.70
2019-02-07T18:09:01.685Z,11.90
2019-02-07T18:11:32.725Z,11.80
2019-02-07T18:14:02.228Z,11.70
2019-02-07T18:16:31.939Z,11.80
2019-02-07T18:19:01.445Z,11.60
2019-02-07T18:21:34.188Z,11.60
2019-02-07T18:24:02.197Z,11.60
2019-02-07T18:26:31.594Z,11.60
2019-02-07T18:29:01.023Z,11.50
2019-02-07T18:31:31.121Z,11.30
2019-02-07T18:34:00.525Z,11.10
2019-02-07T18:36:30.029Z,11.00
2019-02-07T18:38:59.641Z,10.90
2019-02-07T18:41:29.047Z,10.90
2019-02-07T18:43:58.441Z,10.80
2019-02-07T18:46:28.561Z,10.80
2019-02-07T18:48:57.966Z,10.90
2019-02-07T18:51:27.370Z,10.90
2019-02-07T18:53:56.869Z,10.90
2019-02-07T18:56:26.276Z,10.80
2019-02-07T18:58:56.805Z,10.80
2019-02-07T19:01:26.620Z,11.00
2019-02-07T19:03:56.021Z,11.20
2019-02-07T19:06:25.421Z,11.10
2019-02-07T19:08:54.929Z,10.90
2019-02-07T19:11:24.330Z,11.00
2019-02-07T19:13:53.835Z,10.70
2019-02-07T19:16:23.342Z,10.70
2019-02-07T19:18:52.746Z,10.80
2019-02-07T19:21:22.353Z,10.50
2019-02-07T19:23:51.781Z,10.40
2019-02-07T19:26:21.367Z,10.40
2019-02-07T19:28:50.971Z,10.60
2019-02-07T19:31:20.682Z,10.90
2019-02-07T19:33:50.288Z,10.80
2019-02-07T19:36:19.899Z,10.60
2019-02-07T19:38:49.502Z,10.40
2019-02-07T19:41:19.011Z,10.40
2019-02-07T19:43:48.771Z,10.50
2019-02-07T19:46:18.735Z,10.60
2019-02-07T19:48:48.239Z,10.70
2019-02-07T19:51:17.744Z,10.80
2019-02-07T19:53:47.248Z,10.90
2019-02-07T19:56:16.760Z,10.80
2019-02-07T19:58:46.259Z,10.60
2019-02-07T20:01:16.686Z,10.90
2019-02-07T20:03:46.192Z,11.10
2019-02-07T20:06:15.698Z,11.10
2019-02-07T20:08:45.201Z,11.10
2019-02-07T20:11:14.604Z,11.00
2019-02-07T20:13:44.109Z,11.00
2019-02-07T20:16:14.125Z,10.90
2019-02-07T20:18:44.041Z,10.80
2019-02-07T20:21:13.547Z,10.90
2019-02-07T20:23:43.361Z,11.10
2019-02-07T20:26:12.764Z,10.80
2019-02-07T20:28:43.602Z,10.70
2019-02-07T20:31:13.208Z,10.40
2019-02-07T20:33:42.564Z,10.10
2019-02-07T20:36:12.115Z,10.00
2019-02-07T20:38:41.722Z,10.00
2019-02-07T20:41:11.128Z,10.00
2019-02-07T20:43:40.527Z,10.20
2019-02-07T20:46:10.237Z,10.20
2019-02-07T20:48:40.152Z,10.20
2019-02-07T20:51:09.863Z,10.10
2019-02-07T20:53:39.880Z,10.20
2019-02-07T20:56:09.283Z,10.30
2019-02-07T20:58:39.811Z,10.20
2019-02-07T21:01:09.418Z,10.10
2019-02-07T21:03:38.821Z,10.20
2019-02-07T21:06:08.327Z,10.50
2019-02-07T21:08:37.750Z,10.60
2019-02-07T21:11:07.139Z,11.00
2019-02-07T21:13:36.514Z,11.80
2019-02-07T21:16:05.924Z,12.60
2019-02-07T21:18:35.297Z,13.30
2019-02-07T21:21:04.650Z,13.90
2019-02-07T21:23:34.359Z,14.30
2019-02-07T21:26:03.717Z,14.70
2019-02-07T21:28:33.074Z,15.00
2019-02-07T21:31:02.518Z,15.20
2019-02-07T21:33:31.890Z,15.40
2019-02-07T21:36:01.245Z,15.60
2019-02-07T21:38:31.114Z,15.60
2019-02-07T21:41:00.516Z,15.70
2019-02-07T21:43:29.912Z,15.70
2019-02-07T21:45:59.331Z,15.80
2019-02-07T21:48:28.754Z,15.90
2019-02-07T21:50:58.136Z,15.90
2019-02-07T21:53:27.577Z,15.90
2019-02-07T21:55:57.245Z,15.90
2019-02-07T21:58:26.645Z,15.90
2019-02-07T22:00:56.048Z,15.90
2019-02-07T22:03:25.422Z,15.90
2019-02-07T22:05:54.868Z,15.90
2019-02-07T22:08:24.302Z,15.90
2019-02-07T22:10:54.176Z,15.80
2019-02-07T22:13:23.545Z,15.90
2019-02-07T22:15:52.965Z,15.90
2019-02-07T22:18:22.326Z,15.90
2019-02-07T22:20:51.714Z,15.90
2019-02-07T22:23:21.093Z,15.90
2019-02-07T22:25:50.866Z,15.90
2019-02-07T22:28:20.226Z,15.90
2019-02-07T22:30:49.702Z,15.90
2019-02-07T22:33:19.079Z,15.90
2019-02-07T22:35:48.473Z,15.90
2019-02-07T22:38:17.878Z,15.90
2019-02-07T22:40:48.953Z,15.90
2019-02-07T22:43:18.458Z,16.00
2019-02-07T22:45:47.818Z,16.00
2019-02-07T22:48:18.285Z,16.00
2019-02-07T22:50:47.691Z,16.00
2019-02-07T22:53:17.068Z,16.00
2019-02-07T22:55:46.841Z,16.00
2019-02-07T22:58:16.316Z,15.90
2019-02-07T23:01:01.026Z,15.90
2019-02-07T23:03:30.865Z,16.00
2019-02-07T23:06:00.241Z,16.00
2019-02-07T23:08:29.926Z,15.90
2019-02-07T23:10:59.309Z,15.90
2019-02-07T23:13:28.693Z,15.90
2019-02-07T23:15:59.045Z,15.90
2019-02-07T23:18:28.492Z,15.90
2019-02-07T23:20:57.850Z,15.90
2019-02-07T23:23:27.339Z,15.90
2019-02-07T23:25:56.743Z,15.80
2019-02-07T23:28:26.126Z,15.90
2019-02-07T23:30:55.501Z,15.90
2019-02-07T23:33:24.885Z,15.90
2019-02-07T23:35:54.266Z,15.90
2019-02-07T23:38:23.939Z,15.90
2019-02-07T23:40:53.329Z,15.80
2019-02-07T23:43:23.076Z,15.80
2019-02-07T23:45:52.445Z,15.70
2019-02-07T23:48:21.911Z,15.60
2019-02-07T23:50:51.288Z,15.60
2019-02-07T23:53:20.942Z,15.60
2019-02-07T23:55:50.342Z,15.60
2019-02-07T23:58:19.719Z,15.70
